createdAt,value
2018-12-17T00:01:18.455Z,20.80
2018-12-17T00:03:45.798Z,20.80
2018-12-17T00:06:13.983Z,20.82
2018-12-17T00:08:41.642Z,21.03
2018-12-17T00:11:09.420Z,21.42
2018-12-17T00:13:37.075Z,20.55
2018-12-17T00:16:04.366Z,22.45
2018-12-17T00:18:31.986Z,21.35
2018-12-17T00:20:59.412Z,20.30
2018-12-17T00:23:27.075Z,20.82
2018-12-17T00:25:54.708Z,18.42
2018-12-17T00:28:22.356Z,18.95
2018-12-17T00:30:49.982Z,21.00
2018-12-17T00:33:17.308Z,20.52
2018-12-17T00:35:44.972Z,19.50
2018-12-17T00:38:12.651Z,19.87
2018-12-17T00:40:40.034Z,21.35
2018-12-17T00:43:07.376Z,19.55
2018-12-17T00:45:34.781Z,20.52
2018-12-17T00:48:02.398Z,19.65
2018-12-17T00:50:30.029Z,21.50
2018-12-17T00:52:58.036Z,20.80
2018-12-17T00:55:25.866Z,20.25
2018-12-17T00:57:53.462Z,19.60
2018-12-17T01:00:20.827Z,21.35
2018-12-17T01:02:48.215Z,20.35
2018-12-17T01:05:15.524Z,23.38
2018-12-17T01:07:43.494Z,21.03
2018-12-17T01:10:11.368Z,19.97
2018-12-17T01:12:39.031Z,21.68
2018-12-17T01:15:07.437Z,21.27
2018-12-17T01:17:35.682Z,23.02
2018-12-17T01:20:03.760Z,21.35
2018-12-17T01:22:31.432Z,21.42
2018-12-17T01:24:59.123Z,22.20
2018-12-17T01:27:26.848Z,21.82
2018-12-17T01:29:54.716Z,21.52
2018-12-17T01:32:22.060Z,20.82
2018-12-17T01:34:49.450Z,22.30
2018-12-17T01:37:17.345Z,20.10
2018-12-17T01:39:44.928Z,21.73
2018-12-17T01:42:12.272Z,22.73
2018-12-17T01:44:39.752Z,21.10
2018-12-17T01:47:07.429Z,21.40
2018-12-17T01:49:35.190Z,23.73
2018-12-17T01:52:02.760Z,21.95
2018-12-17T01:54:30.727Z,21.05
2018-12-17T01:56:58.387Z,22.58
2018-12-17T01:59:26.060Z,22.25
2018-12-17T02:01:54.427Z,22.20
2018-12-17T02:04:22.499Z,22.77
2018-12-17T02:06:50.230Z,21.93
2018-12-17T02:09:17.845Z,22.82
2018-12-17T02:11:45.687Z,22.98
2018-12-17T02:14:13.262Z,23.50
2018-12-17T02:16:40.810Z,23.62
2018-12-17T02:19:08.138Z,22.87
2018-12-17T02:21:35.986Z,22.02
2018-12-17T02:24:03.346Z,22.10
2018-12-17T02:26:30.683Z,23.95
2018-12-17T02:28:58.320Z,23.03
2018-12-17T02:31:25.864Z,22.20
2018-12-17T02:33:53.522Z,22.90
2018-12-17T02:36:20.826Z,23.30
2018-12-17T02:38:48.436Z,24.57
2018-12-17T02:41:16.413Z,22.52
2018-12-17T02:43:44.283Z,24.05
2018-12-17T02:46:11.723Z,22.40
2018-12-17T02:48:39.004Z,24.27
2018-12-17T02:51:06.963Z,24.52
2018-12-17T02:53:34.297Z,24.37
2018-12-17T02:56:01.672Z,22.52
2018-12-17T02:58:29.538Z,25.30
2018-12-17T03:00:57.199Z,26.57
2018-12-17T03:03:24.918Z,23.77
2018-12-17T03:05:52.274Z,24.67
2018-12-17T03:08:19.834Z,25.15
2018-12-17T03:10:47.312Z,25.08
2018-12-17T03:13:15.191Z,24.40
2018-12-17T03:15:43.070Z,24.67
2018-12-17T03:18:10.740Z,24.32
2018-12-17T03:20:38.606Z,25.30
2018-12-17T03:23:06.256Z,25.72
2018-12-17T03:25:34.238Z,25.92
2018-12-17T03:28:01.674Z,25.35
2018-12-17T03:30:29.390Z,26.20
2018-12-17T03:32:57.329Z,26.10
2018-12-17T03:35:24.780Z,25.68
2018-12-17T03:37:52.146Z,25.97
2018-12-17T03:40:19.762Z,28.80
2018-12-17T03:42:47.363Z,28.38
2018-12-17T03:45:15.229Z,27.27
2018-12-17T03:47:42.892Z,26.55
2018-12-17T03:50:10.577Z,27.80
2018-12-17T03:52:38.212Z,28.47
2018-12-17T03:55:06.083Z,27.50
2018-12-17T03:57:33.727Z,29.10
2018-12-17T04:00:01.039Z,29.07
2018-12-17T04:02:29.244Z,28.17
2018-12-17T04:04:56.684Z,28.40
2018-12-17T04:07:24.706Z,28.83
2018-12-17T04:09:52.175Z,30.05
2018-12-17T04:12:19.825Z,30.95
2018-12-17T04:14:47.899Z,31.93
2018-12-17T04:17:15.872Z,62.30
2018-12-17T04:19:44.283Z,30.88
2018-12-17T04:22:11.563Z,35.53
2018-12-17T04:24:39.846Z,30.70
2018-12-17T04:27:07.300Z,32.80
2018-12-17T04:29:34.696Z,32.40
2018-12-17T04:32:02.043Z,30.37
2018-12-17T04:34:29.391Z,30.20
2018-12-17T04:36:56.690Z,30.75
2018-12-17T04:39:24.358Z,32.05
2018-12-17T04:41:51.668Z,32.65
2018-12-17T04:44:19.282Z,33.07
2018-12-17T04:46:46.990Z,32.45
2018-12-17T04:49:14.668Z,32.60
2018-12-17T04:51:42.629Z,33.83
2018-12-17T04:54:10.594Z,30.52
2018-12-17T04:56:38.154Z,32.78
2018-12-17T04:59:05.600Z,30.75
2018-12-17T05:01:32.931Z,30.70
2018-12-17T05:04:00.786Z,31.57
2018-12-17T05:06:29.104Z,31.40
2018-12-17T05:08:56.890Z,33.78
2018-12-17T05:11:24.530Z,32.40
2018-12-17T05:13:51.872Z,33.20
2018-12-17T05:16:19.514Z,34.73
2018-12-17T05:18:47.121Z,35.68
2018-12-17T05:21:14.447Z,36.15
2018-12-17T05:23:41.791Z,32.55
2018-12-17T05:26:09.124Z,34.00
2018-12-17T05:28:36.743Z,33.15
2018-12-17T05:31:04.063Z,35.37
2018-12-17T05:33:32.228Z,32.25
2018-12-17T05:36:00.623Z,33.60
2018-12-17T05:38:28.524Z,34.57
2018-12-17T05:40:56.374Z,32.80
2018-12-17T05:43:23.678Z,32.35
2018-12-17T05:45:51.172Z,33.60
2018-12-17T05:48:19.173Z,33.83
2018-12-17T05:50:47.143Z,33.67
2018-12-17T05:53:15.525Z,34.50
2018-12-17T05:55:44.299Z,33.40
2018-12-17T05:58:12.486Z,34.20
2018-12-17T06:00:39.814Z,33.95
2018-12-17T06:03:07.503Z,33.85
2018-12-17T06:05:35.062Z,36.33
2018-12-17T06:08:03.029Z,35.20
2018-12-17T06:10:30.391Z,35.83
2018-12-17T06:12:58.072Z,38.40
2018-12-17T06:15:25.362Z,35.28
2018-12-17T06:17:52.686Z,34.92
2018-12-17T06:20:20.375Z,36.98
2018-12-17T06:22:48.010Z,36.93
2018-12-17T06:25:15.948Z,35.58
2018-12-17T06:27:43.326Z,37.55
2018-12-17T06:30:11.280Z,37.28
2018-12-17T06:32:38.619Z,35.35
2018-12-17T06:35:06.912Z,37.03
2018-12-17T06:37:34.571Z,36.58
2018-12-17T06:40:02.307Z,37.08
2018-12-17T06:42:29.657Z,36.25
2018-12-17T06:44:57.461Z,36.45
2018-12-17T06:47:25.322Z,34.30
2018-12-17T06:49:52.889Z,40.17
2018-12-17T06:52:20.237Z,36.28
2018-12-17T06:54:54.586Z,38.78
2018-12-17T06:57:17.480Z,37.28
2018-12-17T06:59:45.073Z,37.83
2018-12-17T07:02:13.144Z,37.60
2018-12-17T07:04:41.112Z,38.42
2018-12-17T07:07:08.979Z,39.15
2018-12-17T07:09:36.376Z,39.73
2018-12-17T07:12:03.670Z,39.53
2018-12-17T07:14:36.439Z,37.95
2018-12-17T07:17:01.063Z,39.30
2018-12-17T07:19:28.916Z,38.63
2018-12-17T07:21:56.288Z,37.90
2018-12-17T07:24:24.459Z,40.05
2018-12-17T07:26:51.808Z,38.80
2018-12-17T07:29:19.131Z,41.53
2018-12-17T07:31:47.041Z,37.60
2018-12-17T07:34:14.383Z,43.87
2018-12-17T07:36:41.711Z,41.23
2018-12-17T07:39:09.615Z,44.63
2018-12-17T07:41:37.100Z,45.88
2018-12-17T07:44:04.564Z,45.30
2018-12-17T07:46:32.583Z,39.73
2018-12-17T07:49:00.418Z,42.70
2018-12-17T07:51:28.337Z,44.60
2018-12-17T07:53:55.707Z,42.35
2018-12-17T07:56:23.580Z,44.50
2018-12-17T07:58:51.220Z,43.80
2018-12-17T08:01:19.190Z,43.87
2018-12-17T08:03:46.558Z,43.83
2018-12-17T08:06:14.210Z,45.10
2018-12-17T08:08:42.178Z,42.70
2018-12-17T08:11:10.045Z,42.60
2018-12-17T08:13:38.020Z,45.00
2018-12-17T08:16:05.359Z,44.42
2018-12-17T08:18:33.014Z,48.33
2018-12-17T08:21:00.905Z,47.30
2018-12-17T08:23:28.290Z,50.63
2018-12-17T08:25:56.123Z,48.63
2018-12-17T08:28:23.990Z,48.63
2018-12-17T08:30:51.470Z,47.60
2018-12-17T08:33:18.752Z,51.15
2018-12-17T08:35:46.671Z,49.65
2018-12-17T08:38:14.331Z,58.95
2018-12-17T08:40:41.727Z,55.30
2018-12-17T08:43:09.563Z,52.20
2018-12-17T08:45:37.213Z,57.70
2018-12-17T08:48:05.192Z,57.10
2018-12-17T08:50:33.159Z,56.55
2018-12-17T08:53:00.830Z,61.65
2018-12-17T08:55:28.489Z,59.42
2018-12-17T08:57:56.140Z,60.93
2018-12-17T09:00:23.504Z,61.65
2018-12-17T09:02:50.847Z,59.83
2018-12-17T09:05:18.201Z,61.02
2018-12-17T09:07:45.851Z,66.55
2018-12-17T09:10:13.459Z,58.58
2018-12-17T09:12:41.097Z,62.70
2018-12-17T09:15:08.450Z,58.87
2018-12-17T09:17:35.844Z,62.78
2018-12-17T09:20:03.879Z,67.87
2018-12-17T09:22:31.527Z,58.92
2018-12-17T09:24:59.416Z,62.75
2018-12-17T09:27:26.955Z,64.32
2018-12-17T09:29:54.943Z,60.53
2018-12-17T09:32:22.912Z,64.07
2018-12-17T09:34:50.885Z,62.97
2018-12-17T09:37:18.630Z,62.57
2018-12-17T09:39:46.063Z,71.90
2018-12-17T09:42:13.426Z,61.40
2018-12-17T09:44:41.025Z,69.90
2018-12-17T09:47:08.387Z,62.60
2018-12-17T09:49:35.750Z,63.17
2018-12-17T09:52:03.151Z,64.82
2018-12-17T09:54:30.851Z,63.10
2018-12-17T09:56:58.178Z,67.67
2018-12-17T09:59:25.588Z,64.58
2018-12-17T10:01:52.994Z,59.27
2018-12-17T10:04:20.761Z,65.17
2018-12-17T10:06:48.719Z,61.90
2018-12-17T10:09:16.312Z,62.73
2018-12-17T10:11:43.675Z,66.95
2018-12-17T10:14:10.997Z,65.30
2018-12-17T10:16:38.766Z,65.83
2018-12-17T10:19:06.082Z,67.03
2018-12-17T10:21:33.459Z,66.60
2018-12-17T10:24:01.345Z,66.77
2018-12-17T10:26:29.535Z,67.65
2018-12-17T10:28:56.842Z,68.00
2018-12-17T10:31:24.151Z,69.10
2018-12-17T10:33:52.067Z,70.22
2018-12-17T10:36:19.422Z,68.87
2018-12-17T10:38:47.044Z,70.67
2018-12-17T10:41:14.688Z,64.90
2018-12-17T10:43:42.060Z,69.10
2018-12-17T10:46:09.404Z,66.97
2018-12-17T10:48:36.706Z,69.22
2018-12-17T10:51:04.836Z,70.47
2018-12-17T10:53:32.431Z,69.12
2018-12-17T10:56:01.843Z,65.40
2018-12-17T10:58:29.767Z,73.00
2018-12-17T11:01:02.506Z,67.58
2018-12-17T11:03:34.304Z,69.45
2018-12-17T11:06:05.039Z,73.27
2018-12-17T11:08:32.380Z,72.75
2018-12-17T11:10:59.952Z,72.15
2018-12-17T11:13:27.613Z,73.85
2018-12-17T11:15:55.285Z,74.27
2018-12-17T11:18:22.744Z,73.60
2018-12-17T11:20:50.406Z,73.33
2018-12-17T11:23:18.270Z,72.12
2018-12-17T11:25:45.972Z,69.00
2018-12-17T11:28:14.622Z,72.43
2018-12-17T11:30:46.495Z,67.03
2018-12-17T11:33:11.287Z,77.45
2018-12-17T11:35:38.690Z,79.80
2018-12-17T11:38:06.094Z,79.95
2018-12-17T11:40:33.951Z,74.92
2018-12-17T11:43:01.289Z,75.30
2018-12-17T11:45:29.310Z,77.03
2018-12-17T11:47:57.018Z,75.80
2018-12-17T11:50:24.408Z,75.22
2018-12-17T11:52:52.780Z,77.00
2018-12-17T11:55:20.329Z,75.83
2018-12-17T11:58:03.971Z,77.05
2018-12-17T12:00:31.519Z,76.65
2018-12-17T12:02:59.299Z,75.35
2018-12-17T12:05:27.468Z,73.80
2018-12-17T12:07:54.865Z,79.30
2018-12-17T12:10:22.239Z,80.07
2018-12-17T12:12:50.261Z,83.42
2018-12-17T12:15:17.604Z,80.55
2018-12-17T12:17:44.972Z,86.35
2018-12-17T12:20:12.559Z,83.07
2018-12-17T12:22:40.213Z,83.75
2018-12-17T12:25:07.572Z,84.87
2018-12-17T12:27:35.193Z,93.78
2018-12-17T12:30:04.343Z,90.10
2018-12-17T12:32:31.927Z,90.97
2018-12-17T12:34:59.585Z,91.10
2018-12-17T12:37:26.966Z,91.25
2018-12-17T12:39:54.353Z,95.83
2018-12-17T12:42:21.739Z,93.20
2018-12-17T12:44:49.359Z,96.30
2018-12-17T12:47:17.330Z,94.87
2018-12-17T12:49:44.885Z,100.78
2018-12-17T12:52:12.453Z,100.25
2018-12-17T12:54:40.420Z,109.10
2018-12-17T12:57:08.091Z,116.37
2018-12-17T12:59:35.667Z,106.72
2018-12-17T13:02:03.607Z,105.55
2018-12-17T13:04:30.971Z,100.95
2018-12-17T13:06:58.288Z,106.55
2018-12-17T13:09:25.691Z,97.50
2018-12-17T13:11:53.096Z,91.90
2018-12-17T13:14:21.004Z,94.77
2018-12-17T13:16:48.624Z,94.95
2018-12-17T13:19:16.492Z,89.07
2018-12-17T13:21:44.121Z,87.65
2018-12-17T13:24:11.654Z,101.05
2018-12-17T13:26:39.311Z,91.92
2018-12-17T13:29:06.910Z,97.40
2018-12-17T13:31:34.850Z,101.00
2018-12-17T13:34:02.460Z,92.37
2018-12-17T13:36:29.781Z,107.23
2018-12-17T13:38:57.141Z,99.90
2018-12-17T13:41:24.953Z,95.65
2018-12-17T13:43:53.050Z,105.03
2018-12-17T13:46:20.382Z,103.05
2018-12-17T13:48:47.939Z,108.55
2018-12-17T13:51:20.757Z,104.03
2018-12-17T13:53:48.108Z,104.97
2018-12-17T13:56:15.423Z,122.60
2018-12-17T13:58:43.015Z,119.90
2018-12-17T14:01:10.892Z,107.37
2018-12-17T14:03:38.532Z,111.22
2018-12-17T14:06:06.212Z,110.10
2018-12-17T14:08:33.550Z,112.10
2018-12-17T14:11:01.618Z,110.15
2018-12-17T14:13:28.967Z,111.90
2018-12-17T14:16:01.568Z,114.85
2018-12-17T14:18:34.384Z,115.70
2018-12-17T14:21:07.393Z,119.72
2018-12-17T14:23:34.734Z,121.95
2018-12-17T14:26:02.468Z,112.60
2018-12-17T14:28:30.023Z,116.55
2018-12-17T14:30:57.624Z,116.62
2018-12-17T14:33:25.555Z,122.42
2018-12-17T14:36:25.480Z,114.32
2018-12-17T14:38:53.189Z,104.77
2018-12-17T14:44:01.687Z,103.12
2018-12-17T14:46:33.464Z,105.75
2018-12-17T14:49:01.195Z,101.82
2018-12-17T14:51:28.511Z,100.50
2018-12-17T14:53:55.919Z,95.25
2018-12-17T14:56:23.484Z,95.53
2018-12-17T14:58:51.031Z,103.47
2018-12-17T15:01:18.692Z,99.17
2018-12-17T15:03:46.511Z,106.58
2018-12-17T15:06:14.097Z,103.15
2018-12-17T15:08:41.715Z,97.27
2018-12-17T15:11:09.441Z,98.60
2018-12-17T15:13:36.792Z,96.02
2018-12-17T15:16:04.119Z,96.13
2018-12-17T15:18:31.480Z,98.25
2018-12-17T15:20:59.071Z,94.65
2018-12-17T15:23:26.674Z,96.85
2018-12-17T15:25:53.974Z,90.60
2018-12-17T15:28:21.555Z,94.00
2018-12-17T15:30:49.217Z,91.65
2018-12-17T15:33:16.502Z,91.10
2018-12-17T15:35:44.224Z,89.20
2018-12-17T15:38:11.887Z,87.60
2018-12-17T15:40:39.234Z,93.30
2018-12-17T15:43:06.549Z,92.35
2018-12-17T15:45:34.263Z,93.50
2018-12-17T15:48:01.665Z,99.83
2018-12-17T15:50:29.255Z,120.50
2018-12-17T15:52:56.578Z,115.97
2018-12-17T15:55:24.177Z,127.30
2018-12-17T15:57:51.475Z,124.83
2018-12-17T16:00:18.852Z,115.47
2018-12-17T16:02:46.460Z,121.65
2018-12-17T16:05:13.815Z,115.52
2018-12-17T16:07:41.423Z,114.75
2018-12-17T16:10:08.902Z,111.08
2018-12-17T16:12:36.497Z,116.67
2018-12-17T16:15:04.235Z,116.65
2018-12-17T16:17:31.924Z,114.03
2018-12-17T16:19:59.261Z,112.50
2018-12-17T16:22:27.135Z,104.20
2018-12-17T16:24:54.484Z,109.37
2018-12-17T16:27:21.991Z,108.97
2018-12-17T16:29:49.486Z,104.80
2018-12-17T16:32:17.174Z,105.52
2018-12-17T16:34:44.544Z,113.32
2018-12-17T16:37:12.607Z,104.77
2018-12-17T16:39:40.173Z,109.53
2018-12-17T16:42:07.830Z,104.10
2018-12-17T16:44:35.225Z,106.67
2018-12-17T16:47:02.588Z,112.45
2018-12-17T16:49:30.206Z,109.83
2018-12-17T16:51:57.645Z,107.07
2018-12-17T16:54:25.143Z,102.47
2018-12-17T16:56:52.519Z,105.47
2018-12-17T16:59:21.899Z,105.78
2018-12-17T17:01:49.887Z,107.72
2018-12-17T17:04:17.195Z,107.92
2018-12-17T17:06:44.544Z,101.67
2018-12-17T17:09:11.930Z,100.45
2018-12-17T17:11:39.574Z,110.05
2018-12-17T17:14:07.229Z,102.12
2018-12-17T17:16:34.898Z,183.60
2018-12-17T17:19:02.551Z,102.65
2018-12-17T17:21:30.194Z,93.30
2018-12-17T17:23:58.302Z,97.00
2018-12-17T17:26:25.700Z,98.80
2018-12-17T17:28:53.324Z,92.35
2018-12-17T17:31:21.291Z,87.82
2018-12-17T17:33:48.947Z,94.28
2018-12-17T17:36:16.615Z,97.27
2018-12-17T17:40:25.320Z,96.47
2018-12-17T17:42:53.215Z,90.17
2018-12-17T17:45:21.055Z,90.50
2018-12-17T17:47:48.969Z,89.03
2018-12-17T17:50:17.035Z,93.25
2018-12-17T17:52:44.657Z,88.78
2018-12-17T17:55:12.140Z,86.60
2018-12-17T17:57:40.111Z,81.78
2018-12-17T18:00:08.591Z,87.57
2018-12-17T18:02:36.190Z,81.97
2018-12-17T18:05:04.327Z,83.50
2018-12-17T18:07:32.884Z,86.65
2018-12-17T18:10:00.577Z,96.47
2018-12-17T18:12:28.758Z,86.57
2018-12-17T18:14:57.551Z,85.28
2018-12-17T18:17:26.054Z,83.03
2018-12-17T18:19:54.064Z,86.03
2018-12-17T18:22:21.865Z,84.40
2018-12-17T18:24:49.732Z,90.47
2018-12-17T18:27:17.210Z,87.80
2018-12-17T18:29:45.223Z,81.22
2018-12-17T18:32:12.670Z,96.95
2018-12-17T18:34:40.482Z,88.90
2018-12-17T18:37:09.227Z,93.20
2018-12-17T18:39:36.751Z,89.03
2018-12-17T18:42:04.260Z,91.70
2018-12-17T18:44:32.016Z,85.95
2018-12-17T18:47:00.458Z,86.47
2018-12-17T18:49:27.993Z,93.67
2018-12-17T18:51:55.578Z,88.70
2018-12-17T18:54:23.337Z,85.00
2018-12-17T18:56:51.042Z,92.12
2018-12-17T18:59:19.275Z,84.83
2018-12-17T19:01:47.116Z,90.45
2018-12-17T19:04:14.807Z,86.90
2018-12-17T19:06:42.266Z,83.17
2018-12-17T19:09:09.891Z,90.90
2018-12-17T19:11:37.589Z,88.90
2018-12-17T19:14:05.329Z,93.70
2018-12-17T19:16:33.521Z,89.97
2018-12-17T19:19:01.392Z,92.05
2018-12-17T19:21:28.859Z,87.02
2018-12-17T19:23:56.401Z,94.47
2018-12-17T19:26:24.053Z,85.53
2018-12-17T19:28:51.708Z,91.37
2018-12-17T19:31:19.638Z,89.15
2018-12-17T19:33:47.662Z,87.97
2018-12-17T19:36:15.401Z,90.10
2018-12-17T19:38:43.433Z,88.47
2018-12-17T19:41:11.152Z,88.20
2018-12-17T19:43:39.075Z,83.37
2018-12-17T19:46:06.498Z,84.83
2018-12-17T19:48:34.443Z,87.35
2018-12-17T19:51:02.182Z,82.60
2018-12-17T19:53:30.747Z,91.20
2018-12-17T19:55:59.831Z,84.77
2018-12-17T19:58:27.583Z,83.75
2018-12-17T20:00:55.543Z,85.53
2018-12-17T20:03:23.862Z,80.62
2018-12-17T20:05:51.583Z,84.45
2018-12-17T20:08:19.710Z,88.30
2018-12-17T20:10:47.618Z,78.87
2018-12-17T20:13:15.579Z,79.05
2018-12-17T20:15:43.462Z,73.62
2018-12-17T20:20:22.598Z,75.75
2018-12-17T20:22:50.318Z,76.95
2018-12-17T20:25:19.359Z,77.60
2018-12-17T20:27:46.943Z,70.25
2018-12-17T20:30:14.573Z,71.40
2018-12-17T20:32:43.064Z,74.25
2018-12-17T20:35:11.096Z,68.15
2018-12-17T20:37:38.607Z,69.95
2018-12-17T20:40:07.591Z,67.82
2018-12-17T20:42:36.263Z,72.15
2018-12-17T20:45:04.878Z,64.87
2018-12-17T20:47:32.842Z,64.37
2018-12-17T20:50:00.824Z,66.80
2018-12-17T20:52:29.180Z,66.47
2018-12-17T20:54:56.839Z,63.17
2018-12-17T20:57:24.405Z,62.43
2018-12-17T20:59:52.026Z,64.50
2018-12-17T21:02:20.269Z,62.35
2018-12-17T21:04:47.818Z,59.80
2018-12-17T21:07:15.378Z,59.83
2018-12-17T21:09:43.432Z,64.40
2018-12-17T21:12:10.975Z,60.10
2018-12-17T21:16:54.830Z,59.70
2018-12-17T21:19:23.926Z,58.68
2018-12-17T21:21:51.537Z,58.92
2018-12-17T21:24:19.370Z,58.28
2018-12-17T21:26:47.194Z,58.85
2018-12-17T21:29:15.165Z,59.53
2018-12-17T21:31:42.588Z,61.30
2018-12-17T21:34:10.491Z,60.38
2018-12-17T21:36:38.666Z,59.23
2018-12-17T21:39:07.493Z,56.92
2018-12-17T21:41:35.347Z,59.67
2018-12-17T21:44:03.125Z,58.20
2018-12-17T21:46:30.715Z,56.20
2018-12-17T21:48:58.122Z,56.65
2018-12-17T21:51:25.910Z,57.00
2018-12-17T21:53:53.360Z,52.03
2018-12-17T21:56:21.605Z,57.25
2018-12-17T21:58:49.215Z,56.60
2018-12-17T22:01:17.264Z,53.55
2018-12-17T22:03:46.660Z,55.70
2018-12-17T22:06:14.327Z,55.00
2018-12-17T22:08:41.905Z,52.88
2018-12-17T22:11:09.446Z,56.80
2018-12-17T22:13:36.915Z,56.35
2018-12-17T22:16:04.887Z,56.35
2018-12-17T22:18:32.325Z,53.65
2018-12-17T22:20:59.792Z,55.67
2018-12-17T22:23:27.323Z,56.20
2018-12-17T22:25:54.910Z,60.03
2018-12-17T22:28:22.581Z,54.35
2018-12-17T22:30:50.086Z,54.55
2018-12-17T22:33:19.933Z,54.67
2018-12-17T22:35:47.551Z,56.53
2018-12-17T22:38:15.387Z,58.43
2018-12-17T22:40:42.843Z,59.53
2018-12-17T22:43:10.297Z,57.60
2018-12-17T22:45:37.725Z,57.08
2018-12-17T22:48:05.142Z,55.48
2018-12-17T22:50:33.476Z,55.80
2018-12-17T22:53:02.691Z,60.45
2018-12-17T22:55:30.277Z,56.40
2018-12-17T22:57:58.206Z,60.07
2018-12-17T23:00:25.987Z,54.40
2018-12-17T23:02:53.470Z,58.90
2018-12-17T23:05:21.215Z,59.65
2018-12-17T23:07:48.889Z,61.65
2018-12-17T23:10:23.018Z,63.05
2018-12-17T23:12:56.153Z,59.03
2018-12-17T23:15:29.607Z,63.20
2018-12-17T23:17:56.564Z,55.95
2018-12-17T23:20:24.019Z,58.15
2018-12-17T23:22:51.635Z,57.73
2018-12-17T23:25:19.265Z,61.23
2018-12-17T23:27:48.306Z,59.98
2018-12-17T23:30:16.058Z,53.70
2018-12-17T23:32:44.640Z,63.30
2018-12-17T23:35:12.034Z,60.00
2018-12-17T23:37:39.556Z,56.33
2018-12-17T23:40:08.395Z,59.30
2018-12-17T23:42:36.487Z,57.38
2018-12-17T23:45:04.489Z,54.50
2018-12-17T23:47:32.567Z,52.23
2018-12-17T23:49:59.998Z,55.38
2018-12-17T23:52:27.623Z,58.08
2018-12-17T23:54:55.662Z,55.48
2018-12-17T23:57:23.302Z,53.60
2018-12-17T23:59:50.791Z,56.20
